createdAt,value
2023-04-27T00:02:19.287Z,6.60
2023-04-27T00:05:07.055Z,6.70
2023-04-27T00:07:56.296Z,6.70
2023-04-27T00:10:43.974Z,6.70
2023-04-27T00:13:31.642Z,6.60
2023-04-27T00:16:19.420Z,6.50
2023-04-27T00:19:09.089Z,6.50
2023-04-27T00:21:58.399Z,6.50
2023-04-27T00:24:47.468Z,6.50
2023-04-27T00:27:34.648Z,6.50
2023-04-27T00:30:22.771Z,6.50
2023-04-27T00:33:09.910Z,6.50
2023-04-27T00:36:01.198Z,6.50
2023-04-27T00:38:48.385Z,6.60
2023-04-27T00:41:42.225Z,6.50
2023-04-27T00:44:29.399Z,6.50
2023-04-27T00:47:17.883Z,6.50
2023-04-27T00:50:10.819Z,6.50
2023-04-27T00:52:58.508Z,6.50
2023-04-27T00:55:46.870Z,6.60
2023-04-27T00:58:35.626Z,6.60
2023-04-27T01:01:24.446Z,6.50
2023-04-27T01:04:12.273Z,6.60
2023-04-27T01:06:59.647Z,6.60
2023-04-27T01:09:47.758Z,6.60
2023-04-27T01:12:36.749Z,6.60
2023-04-27T01:15:27.009Z,6.60
2023-04-27T01:18:15.115Z,6.60
2023-04-27T01:21:02.331Z,6.70
2023-04-27T01:23:51.753Z,6.60
2023-04-27T01:26:39.457Z,6.60
2023-04-27T01:29:27.199Z,6.70
2023-04-27T01:32:14.456Z,6.60
2023-04-27T01:35:03.031Z,6.60
2023-04-27T01:37:51.319Z,6.60
2023-04-27T01:40:39.861Z,6.60
2023-04-27T01:43:27.895Z,6.60
2023-04-27T01:46:15.711Z,6.50
2023-04-27T01:49:04.684Z,6.50
2023-04-27T01:51:52.469Z,6.50
2023-04-27T01:54:40.220Z,6.50
2023-04-27T01:57:28.745Z,6.50
2023-04-27T02:00:18.120Z,6.40
2023-04-27T02:03:08.391Z,6.30
2023-04-27T02:05:55.927Z,6.30
2023-04-27T02:08:43.998Z,6.30
2023-04-27T02:11:31.857Z,6.10
2023-04-27T02:14:21.368Z,6.10
2023-04-27T02:17:09.008Z,6.00
2023-04-27T02:19:56.211Z,5.90
2023-04-27T02:22:44.969Z,5.90
2023-04-27T02:25:32.341Z,5.90
2023-04-27T02:28:19.981Z,5.80
2023-04-27T02:31:08.821Z,5.80
2023-04-27T02:33:56.897Z,5.90
2023-04-27T02:36:45.629Z,5.70
2023-04-27T02:39:33.653Z,5.70
2023-04-27T02:42:21.509Z,5.60
2023-04-27T02:45:09.864Z,5.50
2023-04-27T02:47:58.577Z,5.40
2023-04-27T02:50:46.657Z,5.30
2023-04-27T02:53:34.323Z,5.30
2023-04-27T02:56:21.982Z,5.30
2023-04-27T02:59:09.639Z,5.30
2023-04-27T03:01:57.283Z,5.30
2023-04-27T03:04:45.905Z,5.30
2023-04-27T03:07:34.037Z,5.30
2023-04-27T03:10:23.842Z,5.20
2023-04-27T03:13:12.215Z,5.20
2023-04-27T03:16:00.165Z,5.20
2023-04-27T03:18:48.352Z,5.20
2023-04-27T03:21:36.885Z,5.20
2023-04-27T03:24:25.576Z,5.20
2023-04-27T03:27:12.713Z,5.00
2023-04-27T03:30:00.733Z,5.00
2023-04-27T03:32:48.018Z,5.00
2023-04-27T03:35:36.139Z,5.00
2023-04-27T03:38:25.161Z,5.00
2023-04-27T03:41:13.431Z,5.00
2023-04-27T03:44:01.849Z,5.10
2023-04-27T03:46:49.901Z,5.20
2023-04-27T03:49:37.196Z,5.30
2023-04-27T03:52:24.921Z,5.30
2023-04-27T03:55:13.698Z,5.30
2023-04-27T03:58:03.333Z,5.20
2023-04-27T04:00:52.259Z,5.20
2023-04-27T04:03:40.333Z,5.20
2023-04-27T04:06:29.145Z,5.30
2023-04-27T04:09:16.716Z,5.30
2023-04-27T04:12:06.482Z,5.40
2023-04-27T04:14:54.160Z,5.40
2023-04-27T04:17:41.411Z,5.50
2023-04-27T04:20:29.593Z,5.60
2023-04-27T04:23:16.750Z,5.60
2023-04-27T04:26:05.264Z,5.60
2023-04-27T04:28:57.116Z,5.50
2023-04-27T04:31:45.265Z,5.40
2023-04-27T04:34:33.488Z,5.50
2023-04-27T04:37:21.361Z,5.60
2023-04-27T04:40:09.951Z,5.50
2023-04-27T04:42:58.683Z,5.50
2023-04-27T04:45:47.172Z,5.50
2023-04-27T04:48:34.884Z,5.50
2023-04-27T04:51:22.153Z,5.60
2023-04-27T04:54:10.920Z,5.40
2023-04-27T04:57:02.741Z,5.40
2023-04-27T04:59:50.003Z,5.60
2023-04-27T05:02:39.590Z,5.70
2023-04-27T05:05:27.388Z,5.70
2023-04-27T05:08:15.087Z,5.80
2023-04-27T05:11:02.217Z,6.10
2023-04-27T05:13:50.261Z,6.20
2023-04-27T05:16:37.472Z,6.10
2023-04-27T05:19:29.727Z,6.00
2023-04-27T05:22:16.869Z,6.20
2023-04-27T05:25:05.749Z,6.30
2023-04-27T05:27:52.913Z,6.30
2023-04-27T05:30:41.094Z,6.50
2023-04-27T05:33:28.204Z,6.60
2023-04-27T05:36:17.120Z,6.70
2023-04-27T05:39:04.424Z,6.70
2023-04-27T05:41:54.402Z,7.00
2023-04-27T05:44:41.657Z,7.20
2023-04-27T05:47:29.346Z,7.30
2023-04-27T05:50:16.544Z,7.40
2023-04-27T05:53:05.612Z,7.30
2023-04-27T05:55:52.874Z,7.20
2023-04-27T05:58:40.212Z,7.30
2023-04-27T06:01:27.805Z,7.30
2023-04-27T06:04:15.420Z,7.30
2023-04-27T06:07:07.997Z,7.40
2023-04-27T06:09:56.506Z,7.30
2023-04-27T06:12:45.146Z,7.40
2023-04-27T06:15:34.480Z,7.40
2023-04-27T06:18:22.328Z,7.60
2023-04-27T06:21:09.511Z,7.60
2023-04-27T06:23:57.629Z,7.90
2023-04-27T06:26:46.313Z,8.10
2023-04-27T06:29:33.928Z,8.20
2023-04-27T06:32:21.106Z,8.40
2023-04-27T06:35:09.849Z,8.60
2023-04-27T06:37:58.878Z,8.70
2023-04-27T06:40:51.589Z,8.80
2023-04-27T06:43:40.646Z,8.60
2023-04-27T06:46:28.391Z,8.60
2023-04-27T06:49:15.753Z,8.60
2023-04-27T06:52:04.232Z,8.70
2023-04-27T06:54:51.939Z,8.90
2023-04-27T06:57:39.206Z,8.80
2023-04-27T07:00:28.695Z,9.00
2023-04-27T07:03:16.146Z,9.20
2023-04-27T07:06:04.611Z,9.40
2023-04-27T07:08:52.361Z,9.40
2023-04-27T07:11:40.009Z,9.60
2023-04-27T07:14:27.355Z,9.70
2023-04-27T07:17:16.867Z,9.90
2023-04-27T07:20:06.354Z,9.90
2023-04-27T07:22:54.519Z,10.00
2023-04-27T07:25:41.774Z,10.10
2023-04-27T07:28:30.290Z,10.10
2023-04-27T07:31:17.727Z,10.30
2023-04-27T07:34:07.172Z,10.40
2023-04-27T07:36:54.634Z,10.50
2023-04-27T07:39:42.977Z,10.50
2023-04-27T07:42:30.375Z,10.80
2023-04-27T07:45:18.233Z,11.00
2023-04-27T07:48:06.007Z,11.20
2023-04-27T07:50:55.502Z,11.20
2023-04-27T07:53:42.681Z,11.20
2023-04-27T07:56:30.406Z,11.00
2023-04-27T07:59:17.567Z,11.00
2023-04-27T08:02:18.245Z,11.20
2023-04-27T08:05:08.479Z,11.30
2023-04-27T08:07:58.496Z,11.60
2023-04-27T08:10:45.833Z,11.90
2023-04-27T08:13:34.947Z,12.10
2023-04-27T08:16:22.859Z,12.30
2023-04-27T08:19:11.686Z,12.50
2023-04-27T08:21:58.999Z,12.60
2023-04-27T08:24:47.515Z,12.80
2023-04-27T08:27:38.128Z,12.90
2023-04-27T08:30:25.931Z,13.00
2023-04-27T08:33:14.487Z,13.20
2023-04-27T08:36:01.582Z,13.40
2023-04-27T08:38:49.826Z,13.30
2023-04-27T08:41:42.551Z,13.50
2023-04-27T08:44:30.687Z,13.60
2023-04-27T08:47:20.180Z,13.60
2023-04-27T08:50:13.396Z,14.10
2023-04-27T08:53:00.725Z,14.40
2023-04-27T08:55:48.772Z,14.60
2023-04-27T08:58:37.986Z,15.00
2023-04-27T09:01:29.158Z,15.20
2023-04-27T09:04:17.898Z,15.70
2023-04-27T09:07:13.249Z,16.50
2023-04-27T09:10:04.027Z,16.80
2023-04-27T09:12:56.808Z,16.70
2023-04-27T09:15:48.702Z,17.00
2023-04-27T09:18:38.326Z,16.90
2023-04-27T09:21:27.173Z,17.30
2023-04-27T09:24:14.841Z,17.10
2023-04-27T09:27:03.195Z,17.20
2023-04-27T09:29:51.963Z,17.40
2023-04-27T09:32:40.672Z,17.00
2023-04-27T09:35:31.894Z,16.90
2023-04-27T09:38:20.457Z,17.20
2023-04-27T09:41:09.288Z,17.10
2023-04-27T09:43:58.417Z,16.90
2023-04-27T09:46:49.285Z,16.60
2023-04-27T09:49:39.274Z,16.60
2023-04-27T09:52:26.405Z,16.70
2023-04-27T09:55:17.911Z,16.70
2023-04-27T09:58:38.180Z,16.40
2023-04-27T10:01:32.982Z,16.40
2023-04-27T10:04:45.635Z,16.40
2023-04-27T10:07:33.967Z,16.50
2023-04-27T10:10:21.191Z,16.70
2023-04-27T10:13:09.252Z,16.60
2023-04-27T10:15:56.430Z,16.30
2023-04-27T10:18:53.929Z,16.20
2023-04-27T10:21:54.108Z,16.60
2023-04-27T10:24:43.449Z,17.00
2023-04-27T10:27:40.317Z,17.30
2023-04-27T10:30:32.925Z,17.10
2023-04-27T10:33:23.159Z,16.90
2023-04-27T10:36:17.384Z,17.20
2023-04-27T10:39:16.057Z,17.80
2023-04-27T10:42:05.440Z,17.40
2023-04-27T10:44:56.252Z,17.00
2023-04-27T10:47:45.925Z,17.10
2023-04-27T10:50:33.435Z,16.70
2023-04-27T10:53:21.968Z,16.30
2023-04-27T10:56:11.502Z,16.40
2023-04-27T10:59:03.324Z,16.70
2023-04-27T11:01:51.862Z,17.10
2023-04-27T11:04:40.321Z,17.60
2023-04-27T11:07:29.641Z,18.00
2023-04-27T11:10:17.748Z,17.60
2023-04-27T11:13:11.706Z,17.60
2023-04-27T11:15:59.711Z,18.30
2023-04-27T11:18:48.035Z,18.10
2023-04-27T11:21:35.414Z,17.90
2023-04-27T11:24:23.462Z,17.20
2023-04-27T11:27:10.717Z,17.00
2023-04-27T11:30:00.111Z,16.80
2023-04-27T11:32:48.363Z,16.60
2023-04-27T11:35:36.291Z,16.60
2023-04-27T11:38:23.675Z,16.60
2023-04-27T11:41:11.899Z,16.70
2023-04-27T11:44:04.630Z,16.70
2023-04-27T11:46:54.067Z,16.70
2023-04-27T11:49:46.107Z,16.80
2023-04-27T11:52:35.375Z,16.80
2023-04-27T11:55:22.771Z,15.90
2023-04-27T11:58:15.461Z,15.90
2023-04-27T12:01:03.396Z,16.10
2023-04-27T12:03:54.025Z,16.30
2023-04-27T12:06:41.353Z,16.80
2023-04-27T12:09:29.450Z,16.90
2023-04-27T12:12:22.195Z,17.30
2023-04-27T12:15:11.477Z,18.20
2023-04-27T12:17:58.695Z,18.30
2023-04-27T12:20:48.165Z,18.10
2023-04-27T12:23:36.018Z,17.90
2023-04-27T12:26:23.301Z,18.20
2023-04-27T12:29:11.541Z,18.30
2023-04-27T12:31:59.583Z,18.70
2023-04-27T12:34:47.613Z,19.30
2023-04-27T12:37:36.801Z,19.80
2023-04-27T12:40:25.033Z,19.60
2023-04-27T12:43:12.828Z,19.40
2023-04-27T12:46:00.902Z,19.40
2023-04-27T12:48:48.210Z,19.30
2023-04-27T12:51:37.211Z,19.10
2023-04-27T12:54:26.178Z,19.10
2023-04-27T12:57:14.195Z,18.90
2023-04-27T13:00:02.169Z,18.80
2023-04-27T13:02:51.065Z,18.90
2023-04-27T13:05:38.364Z,18.60
2023-04-27T13:08:26.722Z,18.50
2023-04-27T13:11:16.502Z,18.80
2023-04-27T13:14:05.667Z,19.00
2023-04-27T13:16:52.861Z,18.60
2023-04-27T13:19:41.046Z,18.20
2023-04-27T13:22:28.873Z,17.80
2023-04-27T13:25:17.284Z,17.60
2023-04-27T13:28:05.836Z,17.40
2023-04-27T13:30:53.922Z,17.40
2023-04-27T13:33:43.310Z,17.30
2023-04-27T13:36:30.887Z,17.40
2023-04-27T13:39:18.073Z,17.40
2023-04-27T13:42:06.982Z,17.30
2023-04-27T13:44:56.232Z,16.80
2023-04-27T13:47:44.463Z,16.70
2023-04-27T13:50:31.785Z,16.70
2023-04-27T13:53:20.371Z,16.70
2023-04-27T13:56:07.532Z,16.70
2023-04-27T13:58:55.721Z,16.80
2023-04-27T14:01:44.264Z,16.60
2023-04-27T14:04:32.381Z,16.40
2023-04-27T14:07:19.737Z,16.30
2023-04-27T14:10:08.887Z,16.40
2023-04-27T14:12:57.263Z,16.40
2023-04-27T14:15:44.862Z,15.90
2023-04-27T14:18:33.847Z,15.90
2023-04-27T14:21:21.824Z,16.10
2023-04-27T14:24:08.943Z,16.20
2023-04-27T14:26:56.252Z,16.30
2023-04-27T14:29:43.589Z,16.30
2023-04-27T14:32:31.831Z,16.40
2023-04-27T14:35:20.960Z,16.50
2023-04-27T14:38:08.654Z,16.60
2023-04-27T14:40:56.185Z,16.50
2023-04-27T14:43:45.253Z,16.30
2023-04-27T14:46:32.393Z,16.30
2023-04-27T14:49:21.416Z,16.20
2023-04-27T14:52:09.899Z,16.60
2023-04-27T14:54:59.728Z,16.80
2023-04-27T14:57:47.437Z,17.00
2023-04-27T15:00:34.643Z,17.10
2023-04-27T15:03:22.827Z,17.10
2023-04-27T15:06:10.939Z,17.10
2023-04-27T15:09:00.204Z,16.80
2023-04-27T15:11:47.365Z,16.80
2023-04-27T15:14:35.041Z,16.90
2023-04-27T15:17:22.300Z,16.90
2023-04-27T15:20:11.268Z,16.70
2023-04-27T15:22:58.589Z,16.60
2023-04-27T15:25:49.158Z,16.60
2023-04-27T15:28:37.634Z,16.60
2023-04-27T15:31:25.130Z,16.60
2023-04-27T15:34:12.725Z,16.30
2023-04-27T15:36:59.930Z,16.20
2023-04-27T15:39:47.543Z,16.20
2023-04-27T15:42:36.041Z,16.10
2023-04-27T15:45:24.156Z,16.00
2023-04-27T15:48:12.149Z,16.00
2023-04-27T15:50:59.250Z,15.70
2023-04-27T15:53:46.384Z,15.70
2023-04-27T15:56:33.954Z,15.80
2023-04-27T15:59:22.461Z,16.10
2023-04-27T16:02:10.128Z,16.40
2023-04-27T16:04:57.289Z,16.50
2023-04-27T16:07:46.128Z,16.60
2023-04-27T16:10:34.018Z,16.60
2023-04-27T16:13:21.623Z,16.60
2023-04-27T16:16:10.294Z,16.60
2023-04-27T16:18:59.061Z,16.50
2023-04-27T16:21:47.563Z,16.40
2023-04-27T16:24:34.782Z,16.30
2023-04-27T16:27:22.475Z,16.20
2023-04-27T16:30:10.522Z,16.10
2023-04-27T16:32:59.609Z,16.10
2023-04-27T16:35:47.211Z,16.00
2023-04-27T16:38:34.340Z,16.00
2023-04-27T16:41:22.491Z,15.90
2023-04-27T16:44:10.982Z,16.00
2023-04-27T16:46:58.178Z,16.10
2023-04-27T16:49:47.681Z,16.00
2023-04-27T16:52:35.334Z,15.90
2023-04-27T16:55:23.007Z,15.80
2023-04-27T16:58:10.728Z,15.70
2023-04-27T17:00:58.133Z,15.40
2023-04-27T17:03:46.868Z,15.20
2023-04-27T17:06:35.978Z,15.20
2023-04-27T17:09:23.621Z,15.10
2023-04-27T17:12:12.734Z,15.10
2023-04-27T17:14:59.910Z,15.10
2023-04-27T17:17:47.986Z,15.00
2023-04-27T17:20:35.123Z,14.80
2023-04-27T17:23:23.897Z,14.80
2023-04-27T17:26:12.056Z,14.80
2023-04-27T17:29:02.962Z,14.80
2023-04-27T17:31:50.446Z,14.70
2023-04-27T17:34:38.530Z,14.60
2023-04-27T17:37:26.445Z,14.50
2023-04-27T17:40:21.140Z,14.40
2023-04-27T17:43:08.642Z,14.30
2023-04-27T17:45:55.915Z,14.20
2023-04-27T17:48:44.627Z,14.20
2023-04-27T17:51:33.472Z,14.10
2023-04-27T17:54:20.539Z,14.10
2023-04-27T17:57:09.964Z,14.00
2023-04-27T17:59:57.678Z,13.90
2023-04-27T18:02:45.333Z,13.90
2023-04-27T18:05:32.873Z,13.80
2023-04-27T18:08:20.010Z,13.70
2023-04-27T18:11:07.255Z,13.60
2023-04-27T18:13:57.865Z,13.50
2023-04-27T18:16:45.109Z,13.40
2023-04-27T18:19:32.334Z,13.40
2023-04-27T18:22:20.105Z,13.30
2023-04-27T18:25:08.733Z,13.20
2023-04-27T18:27:56.065Z,13.20
2023-04-27T18:30:44.633Z,13.10
2023-04-27T18:33:32.214Z,13.00
2023-04-27T18:36:20.791Z,12.90
2023-04-27T18:39:09.567Z,12.80
2023-04-27T18:41:57.419Z,12.70
2023-04-27T18:44:45.026Z,12.70
2023-04-27T18:47:34.046Z,12.60
2023-04-27T18:50:21.876Z,12.60
2023-04-27T18:53:09.033Z,12.50
2023-04-27T18:55:56.418Z,12.50
2023-04-27T18:58:43.629Z,12.40
2023-04-27T19:01:32.623Z,12.30
2023-04-27T19:04:21.268Z,12.30
2023-04-27T19:07:09.208Z,12.20
2023-04-27T19:09:56.384Z,12.20
2023-04-27T19:12:43.592Z,12.10
2023-04-27T19:15:31.023Z,12.00
2023-04-27T19:18:19.226Z,12.00
2023-04-27T19:21:10.074Z,11.90
2023-04-27T19:23:58.012Z,11.80
2023-04-27T19:26:46.724Z,11.70
2023-04-27T19:29:48.920Z,11.70
2023-04-27T19:32:36.228Z,11.60
2023-04-27T19:35:23.987Z,11.50
2023-04-27T19:38:12.565Z,11.50
2023-04-27T19:41:00.686Z,11.40
2023-04-27T19:43:49.816Z,11.40
2023-04-27T19:46:37.028Z,11.40
2023-04-27T19:49:25.313Z,11.30
2023-04-27T19:52:12.542Z,11.20
2023-04-27T19:55:02.006Z,11.20
2023-04-27T19:57:49.208Z,11.20
2023-04-27T20:00:36.461Z,11.10
2023-04-27T20:03:23.927Z,11.00
2023-04-27T20:06:11.891Z,11.00
2023-04-27T20:08:59.138Z,10.90
2023-04-27T20:11:48.576Z,10.90
2023-04-27T20:14:37.748Z,10.90
2023-04-27T20:17:28.535Z,10.80
2023-04-27T20:20:15.870Z,10.70
2023-04-27T20:23:03.590Z,10.70
2023-04-27T20:25:51.636Z,10.70
2023-04-27T20:28:40.190Z,10.70
2023-04-27T20:31:27.315Z,10.60
2023-04-27T20:34:15.524Z,10.50
2023-04-27T20:37:02.956Z,10.50
2023-04-27T20:39:52.132Z,10.40
2023-04-27T20:42:39.304Z,10.40
2023-04-27T20:45:28.929Z,10.30
2023-04-27T20:48:16.210Z,10.30
2023-04-27T20:51:04.470Z,10.20
2023-04-27T20:53:51.825Z,10.10
2023-04-27T20:56:39.948Z,10.20
2023-04-27T20:59:27.715Z,10.20
2023-04-27T21:02:16.427Z,10.10
2023-04-27T21:05:04.988Z,10.10
2023-04-27T21:07:52.072Z,10.10
2023-04-27T21:10:40.236Z,10.10
2023-04-27T21:13:27.518Z,10.00
2023-04-27T21:16:15.904Z,9.90
2023-04-27T21:19:05.108Z,9.90
2023-04-27T21:21:53.186Z,9.80
2023-04-27T21:24:40.829Z,9.80
2023-04-27T21:27:28.425Z,9.70
2023-04-27T21:30:16.450Z,9.60
2023-04-27T21:33:03.759Z,9.70
2023-04-27T21:35:53.155Z,9.60
2023-04-27T21:38:40.315Z,9.60
2023-04-27T21:41:27.961Z,9.60
2023-04-27T21:44:15.505Z,9.50
2023-04-27T21:47:02.856Z,9.50
2023-04-27T21:49:52.250Z,9.50
2023-04-27T21:52:41.883Z,9.50
2023-04-27T21:55:29.498Z,9.50
2023-04-27T21:58:17.342Z,9.40
2023-04-27T22:01:05.187Z,9.40
2023-04-27T22:03:53.983Z,9.30
2023-04-27T22:06:41.238Z,9.30
2023-04-27T22:09:30.220Z,9.30
2023-04-27T22:12:17.455Z,9.20
2023-04-27T22:15:06.476Z,9.20
2023-04-27T22:17:53.764Z,9.20
2023-04-27T22:20:41.688Z,9.20
2023-04-27T22:23:30.528Z,9.10
2023-04-27T22:26:19.997Z,9.10
2023-04-27T22:29:07.648Z,9.10
2023-04-27T22:31:55.229Z,9.10
2023-04-27T22:34:43.597Z,9.10
2023-04-27T22:37:31.520Z,9.00
2023-04-27T22:40:18.934Z,9.00
2023-04-27T22:43:07.935Z,9.00
2023-04-27T22:45:55.138Z,8.90
2023-04-27T22:48:44.129Z,8.90
2023-04-27T22:51:31.796Z,8.90
2023-04-27T22:54:18.991Z,8.90
2023-04-27T22:57:07.153Z,9.00
2023-04-27T22:59:55.790Z,9.00
2023-04-27T23:02:44.275Z,8.90
2023-04-27T23:05:32.793Z,8.90
2023-04-27T23:08:20.843Z,8.90
2023-04-27T23:11:08.365Z,8.80
2023-04-27T23:13:57.902Z,8.80
2023-04-27T23:16:47.275Z,8.80
2023-04-27T23:19:35.465Z,8.70
2023-04-27T23:22:23.162Z,8.80
2023-04-27T23:25:11.543Z,8.70
2023-04-27T23:27:58.781Z,8.70
2023-04-27T23:30:53.095Z,8.70
2023-04-27T23:33:42.264Z,8.60
2023-04-27T23:36:29.505Z,8.60
2023-04-27T23:39:17.634Z,8.70
2023-04-27T23:42:05.193Z,8.70
2023-04-27T23:44:53.650Z,8.70
2023-04-27T23:47:41.407Z,8.80
2023-04-27T23:50:31.050Z,8.70
2023-04-27T23:53:18.266Z,8.70
2023-04-27T23:56:07.044Z,8.70
2023-04-27T23:58:54.243Z,8.60
